createdAt,value
2023-01-13T00:00:15.884Z,9.26
2023-01-13T00:02:42.733Z,9.24
2023-01-13T00:05:10.409Z,9.32
2023-01-13T00:07:40.038Z,9.29
2023-01-13T00:10:11.373Z,9.34
2023-01-13T00:12:42.255Z,9.40
2023-01-13T00:15:11.647Z,9.35
2023-01-13T00:17:38.924Z,9.33
2023-01-13T00:20:06.782Z,9.33
2023-01-13T00:22:35.257Z,9.27
2023-01-13T00:25:04.223Z,9.13
2023-01-13T00:27:31.503Z,9.20
2023-01-13T00:29:58.470Z,9.29
2023-01-13T00:32:25.263Z,9.21
2023-01-13T00:34:55.944Z,9.15
2023-01-13T00:37:23.415Z,9.15
2023-01-13T00:39:53.165Z,9.15
2023-01-13T00:42:39.489Z,9.21
2023-01-13T00:45:11.398Z,9.15
2023-01-13T00:47:38.939Z,9.18
2023-01-13T00:50:09.377Z,9.15
2023-01-13T00:52:36.556Z,9.15
2023-01-13T00:55:03.547Z,9.17
2023-01-13T00:57:30.193Z,9.12
2023-01-13T00:59:56.816Z,9.12
2023-01-13T01:02:23.506Z,9.07
2023-01-13T01:04:50.260Z,9.04
2023-01-13T01:07:17.184Z,9.06
2023-01-13T01:09:43.896Z,9.08
2023-01-13T01:12:10.634Z,9.05
2023-01-13T01:14:37.267Z,9.01
2023-01-13T01:17:04.004Z,8.98
2023-01-13T01:19:30.679Z,9.00
2023-01-13T01:21:57.299Z,8.97
2023-01-13T01:24:24.032Z,9.08
2023-01-13T01:26:50.722Z,9.03
2023-01-13T01:29:17.911Z,9.02
2023-01-13T01:31:44.695Z,9.06
2023-01-13T01:34:11.613Z,8.95
2023-01-13T01:36:39.449Z,8.97
2023-01-13T01:39:06.806Z,8.92
2023-01-13T01:41:35.796Z,8.92
2023-01-13T01:44:25.963Z,8.89
2023-01-13T01:46:53.770Z,8.84
2023-01-13T01:49:33.229Z,8.84
2023-01-13T01:52:07.028Z,8.83
2023-01-13T01:54:53.152Z,8.81
2023-01-13T01:57:27.648Z,8.78
2023-01-13T01:59:54.784Z,8.73
2023-01-13T02:02:22.446Z,8.65
2023-01-13T02:04:53.695Z,8.57
2023-01-13T02:07:27.299Z,8.49
2023-01-13T02:09:56.641Z,8.44
2023-01-13T02:12:32.169Z,8.31
2023-01-13T02:15:23.052Z,8.30
2023-01-13T02:18:36.249Z,8.24
2023-01-13T02:22:08.096Z,8.27
2023-01-13T02:24:55.938Z,8.16
2023-01-13T02:27:50.799Z,8.21
2023-01-13T02:30:48.550Z,8.15
2023-01-13T02:33:38.165Z,8.00
2023-01-13T02:36:27.097Z,7.95
2023-01-13T02:39:49.045Z,7.92
2023-01-13T02:42:46.955Z,7.85
2023-01-13T02:45:21.110Z,7.81
2023-01-13T02:47:50.701Z,7.76
2023-01-13T02:50:23.986Z,7.73
2023-01-13T02:52:57.014Z,7.66
2023-01-13T02:55:49.762Z,7.65
2023-01-13T02:58:26.155Z,7.71
2023-01-13T03:00:53.007Z,7.57
2023-01-13T03:03:19.766Z,7.55
2023-01-13T03:05:48.781Z,7.53
2023-01-13T03:08:39.527Z,7.49
2023-01-13T03:11:09.595Z,7.46
2023-01-13T03:14:17.293Z,7.39
2023-01-13T03:17:20.302Z,7.37
2023-01-13T03:20:17.891Z,7.44
2023-01-13T03:22:58.973Z,7.49
2023-01-13T03:25:33.250Z,7.37
2023-01-13T03:28:10.023Z,7.32
2023-01-13T03:30:45.119Z,7.29
2023-01-13T03:33:19.888Z,7.24
2023-01-13T03:35:53.024Z,7.21
2023-01-13T03:38:33.873Z,7.17
2023-01-13T03:41:07.610Z,7.13
2023-01-13T03:44:12.935Z,7.18
2023-01-13T03:46:52.737Z,7.11
2023-01-13T03:49:23.857Z,7.15
2023-01-13T03:51:58.377Z,7.10
2023-01-13T03:54:31.966Z,7.03
2023-01-13T03:57:09.940Z,7.11
2023-01-13T03:59:42.949Z,6.99
2023-01-13T04:02:47.195Z,6.98
2023-01-13T04:05:14.459Z,6.99
2023-01-13T04:08:09.829Z,7.00
2023-01-13T04:10:45.585Z,7.00
2023-01-13T04:13:19.162Z,6.88
2023-01-13T04:15:47.035Z,6.95
2023-01-13T04:18:21.401Z,6.93
2023-01-13T04:20:50.644Z,6.87
2023-01-13T04:23:19.035Z,6.92
2023-01-13T04:25:56.301Z,6.94
2023-01-13T04:28:23.914Z,6.93
2023-01-13T04:30:52.232Z,6.86
2023-01-13T04:33:21.038Z,6.85
2023-01-13T04:35:49.218Z,6.80
2023-01-13T04:38:20.326Z,6.80
2023-01-13T04:40:49.066Z,6.88
2023-01-13T04:43:16.862Z,6.93
2023-01-13T04:45:44.419Z,6.99
2023-01-13T04:48:12.096Z,7.07
2023-01-13T04:50:40.023Z,7.09
2023-01-13T04:53:07.565Z,7.09
2023-01-13T04:55:35.494Z,7.11
2023-01-13T04:58:11.956Z,7.05
2023-01-13T05:00:38.920Z,7.03
2023-01-13T05:03:05.619Z,7.01
2023-01-13T05:05:32.489Z,6.96
2023-01-13T05:07:59.648Z,6.94
2023-01-13T05:10:27.131Z,6.96
2023-01-13T05:13:12.313Z,6.95
2023-01-13T05:16:01.361Z,6.95
2023-01-13T05:18:31.160Z,6.90
2023-01-13T05:20:57.994Z,6.91
2023-01-13T05:23:44.341Z,6.91
2023-01-13T05:26:11.367Z,6.94
2023-01-13T05:28:38.624Z,6.94
2023-01-13T05:31:05.786Z,7.01
2023-01-13T05:33:33.670Z,7.01
2023-01-13T05:36:03.029Z,7.06
2023-01-13T05:38:29.758Z,7.18
2023-01-13T05:41:18.596Z,7.13
2023-01-13T05:43:45.298Z,7.10
2023-01-13T05:46:12.458Z,7.18
2023-01-13T05:48:42.833Z,7.18
2023-01-13T05:51:12.336Z,7.07
2023-01-13T05:53:40.889Z,7.08
2023-01-13T05:56:09.262Z,6.98
2023-01-13T05:58:35.960Z,6.98
2023-01-13T06:01:07.167Z,6.94
2023-01-13T06:03:34.408Z,6.96
2023-01-13T06:06:02.216Z,6.88
2023-01-13T06:08:30.286Z,7.04
2023-01-13T06:10:57.219Z,7.09
2023-01-13T06:13:25.319Z,7.09
2023-01-13T06:15:56.569Z,7.09
2023-01-13T06:18:24.261Z,7.11
2023-01-13T06:20:51.224Z,7.10
2023-01-13T06:23:18.082Z,7.18
2023-01-13T06:25:55.792Z,7.11
2023-01-13T06:28:22.569Z,7.07
2023-01-13T06:30:56.472Z,7.05
2023-01-13T06:33:31.917Z,7.00
2023-01-13T06:36:06.196Z,7.05
2023-01-13T06:38:37.670Z,6.97
2023-01-13T06:41:07.177Z,7.02
2023-01-13T06:43:34.075Z,6.95
2023-01-13T06:46:02.655Z,7.01
2023-01-13T06:48:35.041Z,7.02
2023-01-13T06:51:03.810Z,6.97
2023-01-13T06:53:34.834Z,6.94
2023-01-13T06:56:01.591Z,6.88
2023-01-13T06:58:28.244Z,6.93
2023-01-13T07:00:55.071Z,6.89
2023-01-13T07:03:21.804Z,6.85
2023-01-13T07:05:56.051Z,6.89
2023-01-13T07:08:24.196Z,6.88
2023-01-13T07:10:51.290Z,6.91
2023-01-13T07:13:36.608Z,6.98
2023-01-13T07:16:07.508Z,6.93
2023-01-13T07:18:35.559Z,6.86
2023-01-13T07:21:05.957Z,6.80
2023-01-13T07:23:37.323Z,6.87
2023-01-13T07:26:05.215Z,6.80
2023-01-13T07:28:32.783Z,6.92
2023-01-13T07:31:01.203Z,6.87
2023-01-13T07:33:28.107Z,6.87
2023-01-13T07:36:01.260Z,6.84
2023-01-13T07:38:28.819Z,6.89
2023-01-13T07:40:55.586Z,6.80
2023-01-13T07:43:31.979Z,6.81
2023-01-13T07:46:04.835Z,6.78
2023-01-13T07:48:35.203Z,6.93
2023-01-13T07:51:07.641Z,6.88
2023-01-13T07:53:35.174Z,6.86
2023-01-13T07:56:04.011Z,6.88
2023-01-13T07:58:30.873Z,6.90
2023-01-13T08:00:57.909Z,6.80
2023-01-13T08:03:25.158Z,6.72
2023-01-13T08:05:51.982Z,6.75
2023-01-13T08:08:19.455Z,6.74
2023-01-13T08:10:46.329Z,6.69
2023-01-13T08:13:20.793Z,6.69
2023-01-13T08:15:50.500Z,6.79
2023-01-13T08:18:21.919Z,6.84
2023-01-13T08:20:52.301Z,6.88
2023-01-13T08:23:21.656Z,6.92
2023-01-13T08:25:49.453Z,6.98
2023-01-13T08:28:17.763Z,6.98
2023-01-13T08:30:44.745Z,7.00
2023-01-13T08:33:12.746Z,7.01
2023-01-13T08:35:42.107Z,7.00
2023-01-13T08:38:09.181Z,7.01
2023-01-13T08:40:36.682Z,7.05
2023-01-13T08:43:03.888Z,7.07
2023-01-13T08:45:31.055Z,7.14
2023-01-13T08:47:58.048Z,7.13
2023-01-13T08:50:24.757Z,7.14
2023-01-13T08:52:51.500Z,7.18
2023-01-13T08:55:18.354Z,7.18
2023-01-13T08:57:45.261Z,7.15
2023-01-13T09:00:13.509Z,7.13
2023-01-13T09:02:40.764Z,7.18
2023-01-13T09:05:09.451Z,7.19
2023-01-13T09:07:39.067Z,7.25
2023-01-13T09:10:08.033Z,7.26
2023-01-13T09:12:53.531Z,7.30
2023-01-13T09:15:21.635Z,7.38
2023-01-13T09:17:48.499Z,7.40
2023-01-13T09:20:15.406Z,7.46
2023-01-13T09:22:42.210Z,7.51
2023-01-13T09:25:12.742Z,7.51
2023-01-13T09:27:39.960Z,7.55
2023-01-13T09:30:08.088Z,7.64
2023-01-13T09:32:35.531Z,7.64
2023-01-13T09:35:02.857Z,7.65
2023-01-13T09:37:39.159Z,7.61
2023-01-13T09:40:15.916Z,7.62
2023-01-13T09:43:41.905Z,7.64
2023-01-13T09:46:36.277Z,7.62
2023-01-13T09:49:03.939Z,7.61
2023-01-13T09:51:38.773Z,7.64
2023-01-13T09:54:22.920Z,7.64
2023-01-13T09:56:49.706Z,7.65
2023-01-13T09:59:16.559Z,7.66
2023-01-13T10:01:54.424Z,7.77
2023-01-13T10:04:27.913Z,7.78
2023-01-13T10:07:03.764Z,7.83
2023-01-13T10:09:47.143Z,7.78
2023-01-13T10:12:40.948Z,7.77
2023-01-13T10:15:16.570Z,7.80
2023-01-13T10:17:53.208Z,7.79
2023-01-13T10:20:31.529Z,7.80
2023-01-13T10:23:10.439Z,7.91
2023-01-13T10:26:11.287Z,7.92
2023-01-13T10:28:38.268Z,7.97
2023-01-13T10:31:12.313Z,7.95
2023-01-13T10:33:39.119Z,7.93
2023-01-13T10:36:13.799Z,7.90
2023-01-13T10:38:47.316Z,7.93
2023-01-13T10:41:17.832Z,7.94
2023-01-13T10:44:09.492Z,7.96
2023-01-13T10:46:53.120Z,8.06
2023-01-13T10:49:33.555Z,8.07
2023-01-13T10:52:02.726Z,8.11
2023-01-13T10:54:30.740Z,8.15
2023-01-13T10:57:24.164Z,8.21
2023-01-13T10:59:52.955Z,8.35
2023-01-13T11:02:30.524Z,8.44
2023-01-13T11:04:58.138Z,8.49
2023-01-13T11:07:52.418Z,8.56
2023-01-13T11:10:24.003Z,8.54
2023-01-13T11:13:11.901Z,8.46
2023-01-13T11:16:04.011Z,8.44
2023-01-13T11:19:13.229Z,8.40
2023-01-13T11:22:01.799Z,8.41
2023-01-13T11:24:37.087Z,8.34
2023-01-13T11:27:45.069Z,8.33
2023-01-13T11:31:01.642Z,8.31
2023-01-13T11:33:42.205Z,8.31
2023-01-13T11:36:20.391Z,8.34
2023-01-13T11:39:03.584Z,8.33
2023-01-13T11:42:21.560Z,8.26
2023-01-13T11:45:22.713Z,8.10
2023-01-13T11:47:54.923Z,8.15
2023-01-13T11:50:47.992Z,8.18
2023-01-13T11:53:45.288Z,8.31
2023-01-13T11:56:39.560Z,8.39
2023-01-13T11:59:32.405Z,8.34
2023-01-13T12:02:08.444Z,8.28
2023-01-13T12:05:09.179Z,8.34
2023-01-13T12:08:03.529Z,8.38
2023-01-13T12:10:46.202Z,8.32
2023-01-13T12:13:24.333Z,8.29
2023-01-13T12:16:23.611Z,8.30
2023-01-13T12:19:09.105Z,8.35
2023-01-13T12:21:55.156Z,8.33
2023-01-13T12:24:48.501Z,8.11
2023-01-13T12:27:48.484Z,7.79
2023-01-13T12:30:36.939Z,7.71
2023-01-13T12:33:38.876Z,7.54
2023-01-13T12:36:43.138Z,7.42
2023-01-13T12:39:18.675Z,7.23
2023-01-13T12:43:07.675Z,7.15
2023-01-13T12:45:34.928Z,7.02
2023-01-13T12:48:01.839Z,6.93
2023-01-13T12:50:29.119Z,7.02
2023-01-13T12:53:30.482Z,6.94
2023-01-13T12:56:36.486Z,6.88
2023-01-13T12:59:33.969Z,6.83
2023-01-13T13:02:13.170Z,6.77
2023-01-13T13:04:51.167Z,6.78
2023-01-13T13:07:35.929Z,6.92
2023-01-13T13:10:15.923Z,6.95
2023-01-13T13:13:01.154Z,6.90
2023-01-13T13:15:36.289Z,6.91
2023-01-13T13:18:20.850Z,6.88
2023-01-13T13:21:11.095Z,6.83
2023-01-13T13:24:02.901Z,6.85
2023-01-13T13:26:35.389Z,6.84
2023-01-13T13:29:42.111Z,6.84
2023-01-13T13:32:19.263Z,6.92
2023-01-13T13:35:04.891Z,6.95
2023-01-13T13:38:10.664Z,6.92
2023-01-13T13:41:04.451Z,6.95
2023-01-13T13:44:07.829Z,7.04
2023-01-13T13:46:49.744Z,7.06
2023-01-13T13:49:17.630Z,7.16
2023-01-13T13:52:10.915Z,7.19
2023-01-13T13:54:42.152Z,7.25
2023-01-13T13:57:19.616Z,7.26
2023-01-13T14:00:07.034Z,7.31
2023-01-13T14:02:41.960Z,7.31
2023-01-13T14:05:22.742Z,7.34
2023-01-13T14:08:00.794Z,7.32
2023-01-13T14:10:37.253Z,7.33
2023-01-13T14:13:24.974Z,7.35
2023-01-13T14:16:06.810Z,7.33
2023-01-13T14:18:47.679Z,7.32
2023-01-13T14:21:22.128Z,7.33
2023-01-13T14:24:17.485Z,7.32
2023-01-13T14:26:44.599Z,7.30
2023-01-13T14:29:24.117Z,7.28
2023-01-13T14:31:53.385Z,7.28
2023-01-13T14:34:32.031Z,7.20
2023-01-13T14:37:02.802Z,7.19
2023-01-13T14:39:41.642Z,7.18
2023-01-13T14:42:13.634Z,7.19
2023-01-13T14:44:48.507Z,7.19
2023-01-13T14:47:28.206Z,7.15
2023-01-13T14:50:11.745Z,7.14
2023-01-13T14:53:00.662Z,7.14
2023-01-13T14:55:40.199Z,7.16
2023-01-13T14:58:22.221Z,7.15
2023-01-13T15:00:51.368Z,7.16
2023-01-13T15:03:20.985Z,7.18
2023-01-13T15:05:52.898Z,7.21
2023-01-13T15:08:29.730Z,7.19
2023-01-13T15:11:04.425Z,7.14
2023-01-13T15:13:53.039Z,7.13
2023-01-13T15:16:26.551Z,7.08
2023-01-13T15:18:56.416Z,7.06
2023-01-13T15:21:23.976Z,7.04
2023-01-13T15:23:51.031Z,7.03
2023-01-13T15:26:29.617Z,7.08
2023-01-13T15:28:59.045Z,7.04
2023-01-13T15:31:29.183Z,7.05
2023-01-13T15:33:56.139Z,7.06
2023-01-13T15:36:34.409Z,7.08
2023-01-13T15:39:01.974Z,7.10
2023-01-13T15:41:53.802Z,7.11
2023-01-13T15:44:39.041Z,7.09
2023-01-13T15:47:08.472Z,7.09
2023-01-13T15:49:43.442Z,7.07
2023-01-13T15:52:21.687Z,7.07
2023-01-13T15:54:49.831Z,7.07
2023-01-13T15:57:31.762Z,7.05
2023-01-13T16:00:03.980Z,7.11
2023-01-13T16:02:33.381Z,7.09
2023-01-13T16:05:00.054Z,7.13
2023-01-13T16:07:26.817Z,7.11
2023-01-13T16:09:53.700Z,7.10
2023-01-13T16:12:20.534Z,7.13
2023-01-13T16:14:47.199Z,7.11
2023-01-13T16:17:25.083Z,7.14
2023-01-13T16:19:52.080Z,7.13
2023-01-13T16:22:18.885Z,7.18
2023-01-13T16:24:45.794Z,7.16
2023-01-13T16:27:15.900Z,7.13
2023-01-13T16:29:44.226Z,7.15
2023-01-13T16:32:11.428Z,7.17
2023-01-13T16:34:38.371Z,7.17
2023-01-13T16:37:22.733Z,7.19
2023-01-13T16:39:50.026Z,7.19
2023-01-13T16:42:16.862Z,7.18
2023-01-13T16:44:44.186Z,7.16
2023-01-13T16:47:16.459Z,7.12
2023-01-13T16:49:43.925Z,7.11
2023-01-13T16:52:11.050Z,7.11
2023-01-13T16:54:37.760Z,7.14
2023-01-13T16:57:04.790Z,7.13
2023-01-13T16:59:31.817Z,7.13
2023-01-13T17:01:58.501Z,7.14
2023-01-13T17:04:25.574Z,7.13
2023-01-13T17:07:03.970Z,7.11
2023-01-13T17:09:31.313Z,7.12
2023-01-13T17:11:58.911Z,7.10
2023-01-13T17:14:26.453Z,7.08
2023-01-13T17:16:55.450Z,7.06
2023-01-13T17:19:24.767Z,7.05
2023-01-13T17:21:51.515Z,7.02
2023-01-13T17:24:18.678Z,6.88
2023-01-13T17:26:49.246Z,6.82
2023-01-13T17:29:22.985Z,6.80
2023-01-13T17:31:51.086Z,6.75
2023-01-13T17:34:19.167Z,6.74
2023-01-13T17:36:45.853Z,6.76
2023-01-13T17:39:21.802Z,6.78
2023-01-13T17:41:48.563Z,6.83
2023-01-13T17:44:20.957Z,6.83
2023-01-13T17:46:47.752Z,6.90
2023-01-13T17:49:17.496Z,6.97
2023-01-13T17:51:48.082Z,7.00
2023-01-13T17:54:15.697Z,6.96
2023-01-13T17:56:42.852Z,7.03
2023-01-13T17:59:13.450Z,7.08
2023-01-13T18:01:40.786Z,7.17
2023-01-13T18:04:10.987Z,7.19
2023-01-13T18:06:37.681Z,7.29
2023-01-13T18:09:04.395Z,7.30
2023-01-13T18:11:31.105Z,7.32
2023-01-13T18:13:57.991Z,7.36
2023-01-13T18:16:27.420Z,7.38
2023-01-13T18:19:19.074Z,7.36
2023-01-13T18:22:05.896Z,7.36
2023-01-13T18:24:51.838Z,7.39
2023-01-13T18:27:24.182Z,7.35
2023-01-13T18:29:53.930Z,7.33
2023-01-13T18:32:23.154Z,7.41
2023-01-13T18:34:53.966Z,7.46
2023-01-13T18:37:26.182Z,7.41
2023-01-13T18:39:53.320Z,7.42
2023-01-13T18:42:38.499Z,7.45
2023-01-13T18:45:05.713Z,7.41
2023-01-13T18:47:33.540Z,7.45
2023-01-13T18:50:00.651Z,7.44
2023-01-13T18:52:28.527Z,7.48
2023-01-13T18:54:55.231Z,7.45
2023-01-13T18:57:22.285Z,7.45
2023-01-13T18:59:49.239Z,7.41
2023-01-13T19:02:20.058Z,7.38
2023-01-13T19:04:47.750Z,7.38
2023-01-13T19:07:23.536Z,7.34
2023-01-13T19:09:50.394Z,7.36
2023-01-13T19:12:23.513Z,7.36
2023-01-13T19:14:50.222Z,7.36
2023-01-13T19:17:17.040Z,7.34
2023-01-13T19:19:50.904Z,7.32
2023-01-13T19:22:37.841Z,7.26
2023-01-13T19:25:05.476Z,7.29
2023-01-13T19:27:32.367Z,7.27
2023-01-13T19:30:00.753Z,7.30
2023-01-13T19:32:30.663Z,7.28
2023-01-13T19:34:59.518Z,7.18
2023-01-13T19:37:30.211Z,7.15
2023-01-13T19:40:00.588Z,7.15
2023-01-13T19:42:46.392Z,7.06
2023-01-13T19:45:27.784Z,7.10
2023-01-13T19:47:56.239Z,7.13
2023-01-13T19:50:23.612Z,7.08
2023-01-13T19:52:50.336Z,7.13
2023-01-13T19:55:17.241Z,7.09
2023-01-13T19:57:43.946Z,7.04
2023-01-13T20:00:15.172Z,7.01
2023-01-13T20:02:47.819Z,6.98
2023-01-13T20:05:18.244Z,6.99
2023-01-13T20:07:44.976Z,6.91
2023-01-13T20:10:13.322Z,6.89
2023-01-13T20:12:41.578Z,6.85
2023-01-13T20:15:10.418Z,6.84
2023-01-13T20:17:37.724Z,6.78
2023-01-13T20:20:05.677Z,6.78
2023-01-13T20:22:32.462Z,6.73
2023-01-13T20:24:59.108Z,6.73
2023-01-13T20:27:26.037Z,6.75
2023-01-13T20:29:52.727Z,6.73
2023-01-13T20:32:19.806Z,6.77
2023-01-13T20:34:46.729Z,6.84
2023-01-13T20:37:13.786Z,6.85
2023-01-13T20:39:44.282Z,6.86
2023-01-13T20:42:39.573Z,6.90
2023-01-13T20:45:07.092Z,6.89
2023-01-13T20:47:33.912Z,6.86
2023-01-13T20:50:00.596Z,6.87
2023-01-13T20:52:28.255Z,6.86
2023-01-13T20:54:55.269Z,6.82
2023-01-13T20:57:22.368Z,6.77
2023-01-13T20:59:49.274Z,6.78
2023-01-13T21:02:17.389Z,6.73
2023-01-13T21:04:44.370Z,6.64
2023-01-13T21:07:11.499Z,6.64
2023-01-13T21:09:38.160Z,6.63
2023-01-13T21:12:24.560Z,6.60
2023-01-13T21:15:09.943Z,6.57
2023-01-13T21:17:55.599Z,6.56
2023-01-13T21:20:22.769Z,6.62
2023-01-13T21:22:50.205Z,6.63
2023-01-13T21:25:18.655Z,6.59
2023-01-13T21:27:46.615Z,6.56
2023-01-13T21:30:15.848Z,6.58
2023-01-13T21:32:44.572Z,6.57
2023-01-13T21:35:12.590Z,6.58
2023-01-13T21:37:41.269Z,6.57
2023-01-13T21:40:16.033Z,6.55
2023-01-13T21:43:02.244Z,6.57
2023-01-13T21:45:50.144Z,6.58
2023-01-13T21:48:17.282Z,6.61
2023-01-13T21:50:45.359Z,6.57
2023-01-13T21:53:12.231Z,6.59
2023-01-13T21:55:39.380Z,6.56
2023-01-13T21:58:14.658Z,6.59
2023-01-13T22:00:43.811Z,6.59
2023-01-13T22:03:14.757Z,6.55
2023-01-13T22:05:41.780Z,6.54
2023-01-13T22:08:11.675Z,6.52
2023-01-13T22:10:57.756Z,6.47
2023-01-13T22:13:44.676Z,6.46
2023-01-13T22:16:11.806Z,6.38
2023-01-13T22:18:38.578Z,6.44
2023-01-13T22:21:06.560Z,6.51
2023-01-13T22:23:33.941Z,6.53
2023-01-13T22:26:06.314Z,6.58
2023-01-13T22:28:51.061Z,6.59
2023-01-13T22:31:23.645Z,6.60
2023-01-13T22:33:55.720Z,6.61
2023-01-13T22:36:26.777Z,6.65
2023-01-13T22:38:56.362Z,6.63
2023-01-13T22:41:23.960Z,6.63
2023-01-13T22:43:50.749Z,6.63
2023-01-13T22:46:18.128Z,6.59
2023-01-13T22:48:46.257Z,6.55
2023-01-13T22:51:16.092Z,6.50
2023-01-13T22:53:43.391Z,6.48
2023-01-13T22:56:18.002Z,6.50
2023-01-13T22:58:44.947Z,6.52
2023-01-13T23:01:17.279Z,6.56
2023-01-13T23:03:47.652Z,6.58
2023-01-13T23:06:14.818Z,6.54
2023-01-13T23:08:41.830Z,6.56
2023-01-13T23:11:13.074Z,6.58
2023-01-13T23:13:42.817Z,6.58
2023-01-13T23:16:17.034Z,6.59
2023-01-13T23:18:48.099Z,6.61
2023-01-13T23:21:23.683Z,6.58
2023-01-13T23:23:51.085Z,6.52
2023-01-13T23:26:18.343Z,6.52
2023-01-13T23:28:45.291Z,6.54
2023-01-13T23:31:21.267Z,6.55
2023-01-13T23:33:48.895Z,6.52
2023-01-13T23:36:20.123Z,6.54
2023-01-13T23:38:47.293Z,6.46
2023-01-13T23:41:17.515Z,6.43
2023-01-13T23:43:44.340Z,6.45
2023-01-13T23:46:14.091Z,6.50
2023-01-13T23:48:40.900Z,6.49
2023-01-13T23:51:11.716Z,6.49
2023-01-13T23:53:45.042Z,6.48
2023-01-13T23:56:17.967Z,6.48
2023-01-13T23:58:45.397Z,6.50
